KAMW/AMW METAR and TAF weather

Enter ICAO airport designator
Station Type Date Time Source
KAMW METAR 2020/11/27 03:04 UTC NOAA

KAMW 270304Z AUTO 36006KT 7SM BKN009 02/M01 A3008 RMK AO2 T00171006


Station Type Date Time Source
KAMW Decoded METAR 2020/11/27 03:04 UTC NOAA

AMES MUNICIPAL AIRPORT, IA, United States (KAMW) 41-59N 93-37W 279M
Nov 26, 2020 - 10:04 PM EST / 2020.11.27 0304 UTC
Wind: from the N (360 degrees) at 7 MPH (6 KT):0
Visibility: 7 mile(s):0
Sky conditions: mostly cloudy
Temperature: 35.1 F (1.7 C)
Dew Point: 30.9 F (-0.6 C)
Relative Humidity: 84%
Pressure (altimeter): 30.08 in. Hg (1018 hPa)
ob: KAMW 270304Z AUTO 36006KT 7SM BKN009 02/M01 A3008 RMK AO2 T00171006
cycle: 3

Station Type Date Time Source
KAMW TAF UTC NOAA

Error!

Example: see airport list